createdAt,value
2018-01-14T00:00:40.468Z,18.77
2018-01-14T00:03:08.987Z,19.93
2018-01-14T00:05:37.583Z,19.03
2018-01-14T00:08:06.159Z,19.33
2018-01-14T00:10:35.495Z,20.47
2018-01-14T00:13:04.101Z,19.50
2018-01-14T00:15:32.682Z,19.23
2018-01-14T00:18:01.258Z,20.00
2018-01-14T00:20:29.836Z,17.47
2018-01-14T00:22:58.413Z,21.27
2018-01-14T00:25:26.998Z,17.23
2018-01-14T00:27:55.590Z,19.80
2018-01-14T00:30:24.201Z,19.60
2018-01-14T00:32:52.760Z,19.47
2018-01-14T00:35:21.359Z,18.70
2018-01-14T00:37:49.965Z,18.47
2018-01-14T00:40:18.524Z,23.67
2018-01-14T00:42:47.173Z,18.60
2018-01-14T00:45:16.535Z,19.10
2018-01-14T00:47:45.090Z,23.23
2018-01-14T00:50:13.651Z,20.17
2018-01-14T00:52:42.293Z,20.17
2018-01-14T00:55:10.875Z,18.27
2018-01-14T00:57:39.480Z,21.67
2018-01-14T01:00:08.144Z,25.70
2018-01-14T01:02:36.711Z,22.10
2018-01-14T01:05:05.266Z,18.73
2018-01-14T01:07:34.593Z,23.63
2018-01-14T01:10:03.148Z,21.97
2018-01-14T01:12:32.525Z,22.10
2018-01-14T01:15:01.059Z,20.83
2018-01-14T01:17:30.384Z,21.63
2018-01-14T01:19:58.958Z,20.83
2018-01-14T01:22:27.516Z,21.97
2018-01-14T01:24:56.057Z,23.00
2018-01-14T01:27:24.651Z,23.13
2018-01-14T01:29:53.236Z,22.80
2018-01-14T01:32:21.810Z,20.77
2018-01-14T01:34:50.388Z,26.13
2018-01-14T01:37:18.978Z,24.57
2018-01-14T01:39:47.583Z,26.33
2018-01-14T01:42:17.122Z,22.57
2018-01-14T01:44:45.706Z,23.73
2018-01-14T01:47:14.309Z,24.33
2018-01-14T01:49:43.645Z,26.70
2018-01-14T01:52:12.205Z,25.53
2018-01-14T01:54:40.782Z,24.40
2018-01-14T01:57:10.193Z,24.53
2018-01-14T01:59:39.523Z,25.70
2018-01-14T02:02:08.036Z,25.73
2018-01-14T02:04:36.600Z,25.20
2018-01-14T02:07:05.177Z,26.90
2018-01-14T02:09:33.710Z,26.47
2018-01-14T02:12:02.290Z,30.87
2018-01-14T02:14:34.017Z,27.83
2018-01-14T02:17:02.622Z,30.27
2018-01-14T02:19:30.924Z,26.33
2018-01-14T02:21:59.517Z,30.03
2018-01-14T02:24:28.124Z,28.37
2018-01-14T02:26:56.711Z,28.03
2018-01-14T02:29:26.060Z,30.27
2018-01-14T02:31:54.629Z,27.67
2018-01-14T02:34:23.192Z,30.23
2018-01-14T02:36:51.604Z,29.33
2018-01-14T02:39:20.211Z,28.83
2018-01-14T02:41:48.826Z,31.37
2018-01-14T02:44:17.428Z,29.53
2018-01-14T02:46:46.040Z,30.07
2018-01-14T02:49:14.635Z,29.97
2018-01-14T02:51:42.861Z,31.17
2018-01-14T02:54:11.469Z,30.37
2018-01-14T02:56:40.073Z,31.70
2018-01-14T02:59:08.674Z,33.13
2018-01-14T03:01:37.265Z,29.50
2018-01-14T03:04:05.844Z,33.33
2018-01-14T03:06:34.364Z,31.43
2018-01-14T03:09:02.827Z,27.00
2018-01-14T03:11:31.420Z,31.30
2018-01-14T03:13:59.982Z,34.53
2018-01-14T03:16:28.602Z,30.77
2018-01-14T03:18:57.206Z,32.60
2018-01-14T03:21:25.769Z,33.07
2018-01-14T03:23:54.373Z,32.70
2018-01-14T03:26:23.768Z,34.00
2018-01-14T03:28:52.384Z,31.13
2018-01-14T03:31:21.743Z,35.63
2018-01-14T03:33:50.320Z,30.43
2018-01-14T03:36:18.917Z,30.17
2018-01-14T03:38:47.497Z,31.83
2018-01-14T03:41:16.097Z,30.17
2018-01-14T03:43:46.931Z,33.63
2018-01-14T03:46:16.538Z,32.60
2018-01-14T03:48:46.082Z,35.20
2018-01-14T03:51:15.686Z,32.77
2018-01-14T03:53:45.274Z,31.43
2018-01-14T03:56:14.897Z,32.87
2018-01-14T03:58:44.463Z,33.77
2018-01-14T04:01:14.011Z,33.27
2018-01-14T04:03:43.614Z,32.30
2018-01-14T04:06:13.206Z,33.63
2018-01-14T04:08:42.827Z,28.57
2018-01-14T04:11:12.426Z,31.47
2018-01-14T04:13:42.065Z,28.10
2018-01-14T04:16:11.683Z,30.00
2018-01-14T04:18:41.263Z,29.17
2018-01-14T04:21:10.863Z,28.03
2018-01-14T04:23:40.489Z,30.00
2018-01-14T04:26:10.078Z,26.20
2018-01-14T04:28:39.674Z,30.47
2018-01-14T04:31:09.269Z,29.93
2018-01-14T04:33:38.846Z,28.33
2018-01-14T04:36:08.455Z,28.17
2018-01-14T04:38:38.039Z,29.27
2018-01-14T04:41:07.650Z,26.77
2018-01-14T04:43:37.244Z,30.70
2018-01-14T04:46:06.861Z,26.87
2018-01-14T04:48:36.463Z,24.93
2018-01-14T04:51:06.047Z,29.23
2018-01-14T04:53:35.647Z,27.50
2018-01-14T04:56:05.209Z,28.80
2018-01-14T04:58:34.806Z,25.73
2018-01-14T05:01:04.461Z,25.80
2018-01-14T05:03:34.208Z,28.40
2018-01-14T05:06:03.812Z,27.17
2018-01-14T05:08:33.380Z,26.33
2018-01-14T05:11:03.017Z,28.07
2018-01-14T05:13:32.819Z,25.70
2018-01-14T05:16:02.404Z,25.63
2018-01-14T05:18:31.999Z,27.43
2018-01-14T05:21:01.602Z,23.77
2018-01-14T05:23:31.190Z,25.27
2018-01-14T05:26:00.796Z,27.27
2018-01-14T05:28:30.402Z,27.57
2018-01-14T05:31:00.010Z,25.73
2018-01-14T05:33:29.616Z,24.93
2018-01-14T05:35:59.184Z,27.90
2018-01-14T05:38:28.808Z,25.07
2018-01-14T05:40:58.408Z,25.07
2018-01-14T05:43:28.037Z,26.40
2018-01-14T05:45:57.809Z,23.63
2018-01-14T05:48:27.358Z,24.67
2018-01-14T05:50:56.967Z,24.43
2018-01-14T05:53:26.570Z,24.83
2018-01-14T05:55:56.356Z,23.57
2018-01-14T05:58:25.946Z,23.17
2018-01-14T06:00:55.551Z,24.60
2018-01-14T06:03:25.159Z,24.73
2018-01-14T06:05:54.774Z,23.10
2018-01-14T06:08:24.391Z,26.67
2018-01-14T06:10:54.002Z,22.67
2018-01-14T06:13:23.584Z,22.63
2018-01-14T06:15:53.196Z,24.00
2018-01-14T06:18:22.781Z,22.17
2018-01-14T06:20:52.396Z,21.33
2018-01-14T06:23:22.003Z,25.53
2018-01-14T06:25:51.620Z,22.47
2018-01-14T06:28:21.218Z,23.47
2018-01-14T06:30:50.801Z,21.53
2018-01-14T06:33:20.454Z,21.87
2018-01-14T06:35:50.138Z,21.33
2018-01-14T06:38:19.761Z,19.23
2018-01-14T06:40:49.352Z,17.30
2018-01-14T06:43:18.953Z,21.40
2018-01-14T06:45:48.599Z,20.20
2018-01-14T06:48:18.145Z,19.87
2018-01-14T06:50:47.757Z,20.43
2018-01-14T06:53:17.368Z,19.87
2018-01-14T06:55:46.954Z,21.13
2018-01-14T06:58:16.541Z,19.30
2018-01-14T07:00:46.126Z,18.83
2018-01-14T07:03:15.710Z,22.43
2018-01-14T07:05:45.314Z,19.80
2018-01-14T07:08:14.924Z,19.30
2018-01-14T07:10:44.504Z,18.40
2018-01-14T07:13:14.098Z,19.17
2018-01-14T07:15:43.666Z,20.77
2018-01-14T07:18:13.238Z,20.63
2018-01-14T07:20:42.844Z,15.90
2018-01-14T07:23:12.438Z,17.63
2018-01-14T07:25:42.018Z,20.37
2018-01-14T07:28:11.604Z,20.30
2018-01-14T07:30:41.191Z,20.10
2018-01-14T07:33:10.821Z,20.37
2018-01-14T07:35:40.416Z,22.70
2018-01-14T07:38:10.025Z,19.93
2018-01-14T07:40:39.610Z,20.77
2018-01-14T07:43:09.234Z,17.90
2018-01-14T07:45:38.827Z,19.53
2018-01-14T07:48:08.428Z,19.13
2018-01-14T07:50:38.062Z,17.83
2018-01-14T07:53:07.654Z,22.53
2018-01-14T07:55:37.226Z,23.17
2018-01-14T07:58:06.818Z,23.63
2018-01-14T08:00:36.420Z,19.40
2018-01-14T08:03:06.004Z,21.10
2018-01-14T08:05:35.618Z,20.83
2018-01-14T08:08:05.196Z,19.47
2018-01-14T08:10:34.779Z,18.37
2018-01-14T08:13:04.349Z,17.47
2018-01-14T08:15:33.935Z,26.53
2018-01-14T08:18:03.521Z,20.57
2018-01-14T08:20:33.088Z,18.27
2018-01-14T08:23:02.726Z,19.53
2018-01-14T08:25:32.491Z,19.33
2018-01-14T08:28:02.105Z,24.70
2018-01-14T08:30:31.727Z,19.83
2018-01-14T08:33:01.319Z,19.30
2018-01-14T08:35:30.930Z,23.90
2018-01-14T08:38:00.515Z,34.77
2018-01-14T08:40:30.084Z,22.40
2018-01-14T08:42:59.689Z,22.17
2018-01-14T08:45:28.969Z,25.60
2018-01-14T08:47:58.584Z,21.50
2018-01-14T08:50:28.194Z,19.07
2018-01-14T08:53:05.097Z,18.87
2018-01-14T08:55:34.699Z,20.73
2018-01-14T08:58:04.300Z,24.50
2018-01-14T09:00:33.922Z,26.13
2018-01-14T09:03:03.531Z,21.37
2018-01-14T09:05:33.120Z,18.83
2018-01-14T09:08:02.786Z,17.80
2018-01-14T09:10:32.377Z,19.00
2018-01-14T09:13:01.947Z,18.80
2018-01-14T09:15:32.410Z,17.60
2018-01-14T09:18:02.109Z,17.30
2018-01-14T09:20:31.759Z,17.83
2018-01-14T09:23:01.406Z,19.73
2018-01-14T09:25:30.991Z,28.07
2018-01-14T09:28:00.686Z,17.30
2018-01-14T09:30:35.783Z,17.33
2018-01-14T09:33:05.410Z,14.50
2018-01-14T09:35:35.017Z,17.90
2018-01-14T09:38:04.678Z,14.90
2018-01-14T09:40:39.859Z,17.77
2018-01-14T09:43:09.648Z,14.57
2018-01-14T09:45:39.205Z,15.77
2018-01-14T09:48:08.866Z,17.93
2018-01-14T09:50:38.477Z,16.97
2018-01-14T09:53:08.154Z,17.93
2018-01-14T09:55:37.868Z,14.00
2018-01-14T09:58:06.474Z,16.00
2018-01-14T10:00:35.123Z,15.53
2018-01-14T10:03:06.787Z,15.27
2018-01-14T10:05:35.425Z,13.63
2018-01-14T10:08:04.010Z,14.03
2018-01-14T10:10:32.599Z,13.30
2018-01-14T10:13:01.273Z,13.97
2018-01-14T10:15:29.878Z,14.07
2018-01-14T10:17:58.427Z,10.93
2018-01-14T10:20:27.050Z,10.70
2018-01-14T10:22:55.784Z,15.27
2018-01-14T10:25:25.158Z,11.10
2018-01-14T10:27:53.788Z,11.30
2018-01-14T10:30:22.068Z,10.17
2018-01-14T10:32:50.626Z,11.83
2018-01-14T10:35:19.225Z,11.07
2018-01-14T10:37:47.837Z,9.87
2018-01-14T10:40:16.414Z,11.00
2018-01-14T10:42:45.013Z,13.17
2018-01-14T10:45:13.650Z,11.17
2018-01-14T10:47:42.998Z,11.33
2018-01-14T10:50:11.620Z,11.00
2018-01-14T10:52:40.215Z,11.80
2018-01-14T10:55:08.826Z,10.63
2018-01-14T10:57:39.521Z,12.40
2018-01-14T11:00:08.137Z,11.97
2018-01-14T11:02:36.671Z,12.87
2018-01-14T11:05:05.226Z,10.07
2018-01-14T11:07:33.816Z,12.83
2018-01-14T11:10:02.240Z,12.03
2018-01-14T11:12:30.829Z,9.87
2018-01-14T11:14:59.407Z,11.80
2018-01-14T11:17:28.019Z,13.67
2018-01-14T11:19:57.380Z,11.93
2018-01-14T11:22:25.992Z,13.87
2018-01-14T11:24:54.695Z,10.07
2018-01-14T11:27:22.952Z,12.60
2018-01-14T11:30:03.165Z,13.07
2018-01-14T11:32:31.769Z,14.10
2018-01-14T11:35:00.344Z,14.20
2018-01-14T11:37:28.952Z,13.83
2018-01-14T11:39:58.304Z,12.47
2018-01-14T11:42:28.673Z,16.10
2018-01-14T11:45:00.175Z,12.87
2018-01-14T11:47:28.775Z,13.10
2018-01-14T11:49:58.121Z,11.27
2018-01-14T11:52:26.728Z,10.93
2018-01-14T11:54:55.357Z,9.87
2018-01-14T11:57:24.735Z,9.87
2018-01-14T11:59:53.279Z,9.77
2018-01-14T12:02:21.902Z,10.23
2018-01-14T12:04:50.465Z,10.37
2018-01-14T12:07:19.104Z,10.27
2018-01-14T12:09:49.466Z,10.63
2018-01-14T12:12:18.074Z,9.50
2018-01-14T12:14:46.530Z,9.53
2018-01-14T12:17:15.091Z,11.87
2018-01-14T12:19:44.411Z,10.90
2018-01-14T12:22:12.988Z,14.23
2018-01-14T12:24:42.334Z,16.47
2018-01-14T12:27:10.779Z,11.90
2018-01-14T12:29:39.388Z,11.50
2018-01-14T12:32:07.971Z,10.23
2018-01-14T12:34:40.836Z,11.70
2018-01-14T12:37:09.425Z,12.23
2018-01-14T12:39:38.756Z,18.27
2018-01-14T12:42:07.351Z,13.13
2018-01-14T12:44:36.838Z,11.77
2018-01-14T12:47:05.426Z,11.50
2018-01-14T12:49:34.104Z,12.30
2018-01-14T12:52:02.714Z,10.00
2018-01-14T12:54:32.005Z,10.83
2018-01-14T12:57:00.595Z,10.90
2018-01-14T12:59:29.159Z,11.57
2018-01-14T13:01:57.723Z,10.80
2018-01-14T13:04:26.327Z,12.63
2018-01-14T13:07:01.417Z,12.37
2018-01-14T13:09:40.865Z,11.57
2018-01-14T13:12:11.706Z,10.13
2018-01-14T13:14:45.885Z,12.13
2018-01-14T13:17:17.138Z,11.87
2018-01-14T13:19:45.759Z,12.57
2018-01-14T13:22:14.360Z,11.73
2018-01-14T13:24:43.719Z,12.43
2018-01-14T13:27:12.365Z,10.60
2018-01-14T13:29:41.882Z,10.50
2018-01-14T13:32:11.527Z,10.60
2018-01-14T13:34:40.132Z,8.43
2018-01-14T13:37:08.759Z,10.83
2018-01-14T13:39:38.144Z,11.03
2018-01-14T13:42:06.717Z,10.40
2018-01-14T13:44:35.330Z,10.67
2018-01-14T13:47:04.760Z,10.90
2018-01-14T13:49:33.337Z,11.10
2018-01-14T13:52:01.917Z,11.53
2018-01-14T13:54:31.232Z,9.60
2018-01-14T13:56:59.883Z,9.37
2018-01-14T13:59:28.439Z,9.90
2018-01-14T14:01:57.008Z,11.10
2018-01-14T14:04:25.640Z,12.77
2018-01-14T14:06:54.233Z,9.13
2018-01-14T14:09:22.899Z,9.97
2018-01-14T14:11:51.542Z,9.97
2018-01-14T14:14:20.117Z,9.10
2018-01-14T14:16:49.477Z,9.27
2018-01-14T14:19:18.073Z,9.40
2018-01-14T14:21:46.656Z,10.27
2018-01-14T14:24:15.177Z,10.23
2018-01-14T14:26:43.780Z,10.43
2018-01-14T14:29:12.368Z,9.60
2018-01-14T14:31:41.084Z,10.77
2018-01-14T14:34:09.693Z,9.73
2018-01-14T14:36:38.268Z,9.07
2018-01-14T14:39:06.958Z,9.50
2018-01-14T14:41:35.565Z,10.47
2018-01-14T14:44:04.262Z,13.37
2018-01-14T14:46:33.619Z,9.33
2018-01-14T14:49:02.246Z,10.10
2018-01-14T14:51:38.730Z,10.97
2018-01-14T14:54:08.211Z,12.03
2018-01-14T14:56:43.366Z,10.47
2018-01-14T14:59:12.704Z,11.07
2018-01-14T15:01:41.309Z,8.87
2018-01-14T15:04:09.953Z,10.63
2018-01-14T15:06:39.605Z,11.17
2018-01-14T15:09:08.225Z,13.07
2018-01-14T15:11:36.793Z,10.73
2018-01-14T15:14:08.839Z,12.27
2018-01-14T15:16:37.447Z,11.80
2018-01-14T15:19:06.034Z,12.57
2018-01-14T15:21:34.636Z,10.37
2018-01-14T15:24:03.259Z,14.50
2018-01-14T15:26:32.584Z,20.23
2018-01-14T15:29:07.891Z,20.63
2018-01-14T15:31:37.265Z,25.03
2018-01-14T15:34:06.897Z,37.57
2018-01-14T15:36:35.524Z,40.00
2018-01-14T15:39:04.275Z,34.20
2018-01-14T15:41:32.878Z,30.13
2018-01-14T15:44:02.296Z,30.03
2018-01-14T15:46:34.563Z,24.60
2018-01-14T15:49:03.675Z,25.03
2018-01-14T15:51:32.248Z,16.83
2018-01-14T15:54:00.891Z,16.93
2018-01-14T15:56:29.468Z,13.77
2018-01-14T15:58:58.177Z,15.77
2018-01-14T16:01:27.596Z,23.67
2018-01-14T16:03:56.260Z,15.33
2018-01-14T16:06:24.844Z,18.00
2018-01-14T16:08:53.465Z,15.57
2018-01-14T16:11:22.826Z,19.80
2018-01-14T16:13:51.375Z,17.07
2018-01-14T16:16:19.976Z,9.43
2018-01-14T16:18:48.595Z,8.70
2018-01-14T16:21:17.349Z,8.10
2018-01-14T16:23:45.908Z,10.93
2018-01-14T16:26:15.896Z,9.67
2018-01-14T16:28:51.556Z,11.50
2018-01-14T16:31:20.204Z,10.33
2018-01-14T16:33:48.750Z,9.70
2018-01-14T16:36:17.322Z,10.47
2018-01-14T16:38:45.965Z,9.97
2018-01-14T16:41:18.774Z,10.57
2018-01-14T16:43:47.366Z,12.07
2018-01-14T16:46:16.752Z,12.03
2018-01-14T16:48:45.392Z,11.03
2018-01-14T16:51:16.808Z,9.83
2018-01-14T16:53:45.356Z,10.37
2018-01-14T16:56:14.009Z,12.53
2018-01-14T16:58:42.603Z,10.97
2018-01-14T17:01:11.956Z,11.60
2018-01-14T17:03:40.560Z,10.40
2018-01-14T17:06:09.129Z,14.00
2018-01-14T17:08:37.769Z,24.43
2018-01-14T17:11:07.126Z,21.83
2018-01-14T17:13:35.719Z,18.53
2018-01-14T17:16:04.350Z,13.27
2018-01-14T17:18:33.684Z,13.30
2018-01-14T17:21:02.247Z,13.03
2018-01-14T17:23:30.866Z,12.50
2018-01-14T17:25:59.480Z,19.60
2018-01-14T17:28:28.091Z,18.27
2018-01-14T17:30:57.474Z,18.93
2018-01-14T17:33:26.047Z,19.50
2018-01-14T17:35:54.647Z,27.83
2018-01-14T17:38:23.272Z,44.47
2018-01-14T17:40:51.896Z,38.73
2018-01-14T17:43:20.496Z,25.83
2018-01-14T17:45:49.107Z,19.90
2018-01-14T17:48:17.715Z,17.83
2018-01-14T17:50:46.306Z,18.03
2018-01-14T17:53:14.897Z,15.93
2018-01-14T17:55:43.502Z,15.93
2018-01-14T17:58:12.872Z,15.00
2018-01-14T18:00:41.621Z,15.98
2018-01-14T18:03:10.452Z,13.13
2018-01-14T18:05:39.849Z,11.90
2018-01-14T18:08:08.486Z,13.30
2018-01-14T18:10:37.054Z,14.40
2018-01-14T18:13:05.626Z,15.07
2018-01-14T18:15:34.215Z,16.57
2018-01-14T18:18:02.831Z,14.73
2018-01-14T18:20:31.472Z,13.93
2018-01-14T18:23:00.355Z,15.85
2018-01-14T18:25:29.739Z,17.13
2018-01-14T18:27:58.632Z,18.33
2018-01-14T18:30:27.344Z,16.63
2018-01-14T18:32:56.293Z,18.83
2018-01-14T18:35:25.058Z,19.43
2018-01-14T18:37:54.268Z,20.03
2018-01-14T18:40:23.163Z,23.05
2018-01-14T18:42:52.779Z,20.62
2018-01-14T18:45:21.833Z,22.13
2018-01-14T18:47:51.169Z,24.73
2018-01-14T18:50:19.724Z,33.07
2018-01-14T18:52:48.574Z,36.95
2018-01-14T18:55:17.445Z,32.33
2018-01-14T18:57:46.013Z,25.93
2018-01-14T19:00:14.976Z,29.02
2018-01-14T19:02:59.655Z,43.60
2018-01-14T19:05:28.538Z,32.42
2018-01-14T19:07:57.411Z,26.90
2018-01-14T19:10:26.308Z,25.52
2018-01-14T19:12:55.923Z,20.98
2018-01-14T19:15:24.486Z,24.33
2018-01-14T19:17:53.348Z,23.58
2018-01-14T19:20:22.227Z,25.33
2018-01-14T19:22:51.127Z,23.23
2018-01-14T19:25:19.952Z,19.20
2018-01-14T19:27:48.828Z,21.23
2018-01-14T19:30:17.451Z,24.30
2018-01-14T19:32:46.286Z,36.22
2018-01-14T19:35:15.191Z,24.60
2018-01-14T19:37:44.058Z,29.17
2018-01-14T19:40:12.921Z,26.10
2018-01-14T19:42:41.485Z,23.07
2018-01-14T19:45:11.107Z,21.90
2018-01-14T19:47:39.944Z,21.37
2018-01-14T19:50:08.853Z,23.73
2018-01-14T19:52:37.764Z,22.65
2018-01-14T19:55:06.619Z,26.92
2018-01-14T19:57:35.460Z,27.00
2018-01-14T20:00:04.038Z,23.45
2018-01-14T20:02:33.653Z,30.65
2018-01-14T20:05:03.284Z,27.02
2018-01-14T20:07:32.129Z,27.70
2018-01-14T20:10:00.982Z,28.38
2018-01-14T20:12:29.829Z,25.17
2018-01-14T20:14:59.522Z,21.90
2018-01-14T20:17:28.360Z,27.00
2018-01-14T20:19:57.222Z,27.85
2018-01-14T20:22:26.061Z,31.27
2018-01-14T20:24:55.049Z,24.00
2018-01-14T20:27:23.959Z,25.17
2018-01-14T20:29:52.789Z,21.80
2018-01-14T20:32:22.431Z,20.85
2018-01-14T20:34:51.280Z,20.02
2018-01-14T20:37:20.180Z,21.77
2018-01-14T20:39:49.493Z,23.25
2018-01-14T20:42:23.463Z,24.67
2018-01-14T20:44:55.330Z,21.58
2018-01-14T20:47:24.216Z,20.65
2018-01-14T20:49:53.096Z,19.77
2018-01-14T20:52:21.910Z,24.85
2018-01-14T20:54:50.784Z,21.20
2018-01-14T20:57:19.668Z,23.80
2018-01-14T20:59:48.523Z,23.05
2018-01-14T21:02:17.470Z,22.80
2018-01-14T21:04:46.369Z,22.08
2018-01-14T21:07:15.226Z,24.50
2018-01-14T21:09:43.970Z,27.02
2018-01-14T21:12:13.051Z,24.58
2018-01-14T21:14:44.000Z,24.27
2018-01-14T21:17:12.869Z,32.25
2018-01-14T21:19:41.724Z,24.70
2018-01-14T21:22:10.761Z,21.05
2018-01-14T21:24:39.628Z,23.10
2018-01-14T21:27:08.532Z,24.27
2018-01-14T21:29:37.425Z,22.05
2018-01-14T21:32:06.309Z,20.95
2018-01-14T21:34:35.153Z,24.27
2018-01-14T21:37:04.014Z,26.55
2018-01-14T21:39:33.836Z,23.23
2018-01-14T21:42:02.698Z,26.10
2018-01-14T21:44:32.383Z,24.50
2018-01-14T21:47:01.270Z,23.77
2018-01-14T21:49:30.144Z,22.50
2018-01-14T21:51:59.025Z,22.15
2018-01-14T21:54:27.921Z,24.87
2018-01-14T21:56:56.457Z,22.05
2018-01-14T21:59:26.098Z,25.62
2018-01-14T22:01:54.965Z,21.70
2018-01-14T22:04:24.566Z,24.42
2018-01-14T22:06:54.200Z,22.67
2018-01-14T22:09:35.235Z,24.37
2018-01-14T22:12:04.123Z,28.23
2018-01-14T22:14:33.028Z,29.27
2018-01-14T22:17:01.893Z,27.08
2018-01-14T22:19:30.727Z,25.30
2018-01-14T22:22:00.619Z,33.33
2018-01-14T22:24:29.788Z,30.85
2018-01-14T22:27:00.294Z,30.50
2018-01-14T22:29:29.225Z,27.83
2018-01-14T22:31:58.102Z,27.45
2018-01-14T22:34:26.971Z,24.40
2018-01-14T22:36:55.874Z,22.00
2018-01-14T22:39:24.711Z,25.58
2018-01-14T22:41:53.576Z,29.83
2018-01-14T22:44:22.435Z,28.45
2018-01-14T22:46:51.350Z,28.05
2018-01-14T22:49:20.213Z,27.05
2018-01-14T22:51:49.882Z,27.92
2018-01-14T22:54:18.790Z,27.75
2018-01-14T22:56:47.645Z,28.60
2018-01-14T22:59:16.367Z,25.17
2018-01-14T23:01:45.274Z,25.88
2018-01-14T23:04:14.129Z,26.87
2018-01-14T23:06:43.021Z,27.62
2018-01-14T23:09:11.892Z,25.23
2018-01-14T23:11:40.730Z,28.20
2018-01-14T23:14:09.650Z,25.40
2018-01-14T23:16:38.532Z,23.17
2018-01-14T23:19:07.348Z,24.95
2018-01-14T23:21:36.980Z,22.02
2018-01-14T23:24:05.852Z,24.60
2018-01-14T23:26:35.440Z,23.87
2018-01-14T23:29:04.339Z,22.83
2018-01-14T23:31:33.970Z,23.00
2018-01-14T23:34:03.415Z,24.42
2018-01-14T23:36:32.295Z,19.70
2018-01-14T23:39:01.133Z,26.00
2018-01-14T23:41:30.025Z,19.98
2018-01-14T23:43:58.891Z,20.67
2018-01-14T23:46:27.755Z,22.17
2018-01-14T23:48:56.607Z,19.05
2018-01-14T23:51:25.527Z,24.70
2018-01-14T23:53:55.117Z,24.95
2018-01-14T23:56:23.871Z,21.25
2018-01-14T23:58:52.950Z,26.05
